createdAt,value
2018-11-03T00:00:24.360Z,100.00
2018-11-03T00:02:52.826Z,100.00
2018-11-03T00:05:21.286Z,100.00
2018-11-03T00:07:49.780Z,100.00
2018-11-03T00:10:18.249Z,100.00
2018-11-03T00:12:47.329Z,100.00
2018-11-03T00:15:15.746Z,100.00
2018-11-03T00:17:45.511Z,100.00
2018-11-03T00:20:13.938Z,100.00
2018-11-03T00:22:42.369Z,100.00
2018-11-03T00:25:11.259Z,100.00
2018-11-03T00:27:39.722Z,100.00
2018-11-03T00:30:10.529Z,100.00
2018-11-03T00:32:39.033Z,100.00
2018-11-03T00:35:07.498Z,100.00
2018-11-03T00:37:36.023Z,100.00
2018-11-03T00:40:04.826Z,100.00
2018-11-03T00:42:33.247Z,100.00
2018-11-03T00:45:01.727Z,100.00
2018-11-03T00:47:30.198Z,100.00
2018-11-03T00:49:58.664Z,100.00
2018-11-03T00:52:27.199Z,100.00
2018-11-03T00:54:55.590Z,100.00
2018-11-03T00:57:24.013Z,100.00
2018-11-03T00:59:52.451Z,100.00
2018-11-03T01:02:20.885Z,100.00
2018-11-03T01:04:49.288Z,100.00
2018-11-03T01:07:17.774Z,100.00
2018-11-03T01:09:46.197Z,100.00
2018-11-03T01:12:14.612Z,100.00
2018-11-03T01:14:43.068Z,100.00
2018-11-03T01:17:11.493Z,100.00
2018-11-03T01:19:40.060Z,100.00
2018-11-03T01:22:08.512Z,100.00
2018-11-03T01:24:36.961Z,100.00
2018-11-03T01:27:05.905Z,100.00
2018-11-03T01:29:34.309Z,100.00
2018-11-03T01:32:02.844Z,100.00
2018-11-03T01:34:31.249Z,100.00
2018-11-03T01:36:59.792Z,100.00
2018-11-03T01:39:28.220Z,100.00
2018-11-03T01:41:56.697Z,100.00
2018-11-03T01:44:25.133Z,100.00
2018-11-03T01:46:53.582Z,100.00
2018-11-03T01:49:22.028Z,100.00
2018-11-03T01:51:50.485Z,100.00
2018-11-03T01:54:18.927Z,100.00
2018-11-03T01:56:47.349Z,100.00
2018-11-03T01:59:15.792Z,100.00
2018-11-03T02:01:44.257Z,100.00
2018-11-03T02:04:12.730Z,100.00
2018-11-03T02:06:41.155Z,100.00
2018-11-03T02:09:10.466Z,100.00
2018-11-03T02:11:38.909Z,100.00
2018-11-03T02:14:07.424Z,100.00
2018-11-03T02:16:35.854Z,100.00
2018-11-03T02:19:04.360Z,100.00
2018-11-03T02:21:38.240Z,100.00
2018-11-03T02:24:06.929Z,100.00
2018-11-03T02:26:35.475Z,100.00
2018-11-03T02:29:04.099Z,100.00
2018-11-03T02:31:32.522Z,100.00
2018-11-03T02:34:00.951Z,100.00
2018-11-03T02:36:29.381Z,100.00
2018-11-03T02:38:57.798Z,100.00
2018-11-03T02:41:26.205Z,100.00
2018-11-03T02:43:54.605Z,100.00
2018-11-03T02:46:23.057Z,100.00
2018-11-03T02:48:51.480Z,100.00
2018-11-03T02:51:19.878Z,100.00
2018-11-03T02:53:48.273Z,100.00
2018-11-03T02:56:16.702Z,100.00
2018-11-03T02:58:45.125Z,100.00
2018-11-03T03:01:13.540Z,100.00
2018-11-03T03:03:42.030Z,100.00
2018-11-03T03:06:10.473Z,100.00
2018-11-03T03:08:38.898Z,100.00
2018-11-03T03:11:07.294Z,100.00
2018-11-03T03:13:35.717Z,100.00
2018-11-03T03:16:04.137Z,100.00
2018-11-03T03:18:32.565Z,100.00
2018-11-03T03:21:00.985Z,100.00
2018-11-03T03:23:29.482Z,100.00
2018-11-03T03:25:57.874Z,100.00
2018-11-03T03:28:26.305Z,100.00
2018-11-03T03:30:54.757Z,100.00
2018-11-03T03:33:23.191Z,100.00
2018-11-03T03:35:51.613Z,100.00
2018-11-03T03:38:20.205Z,100.00
2018-11-03T03:40:48.693Z,100.00
2018-11-03T03:43:17.160Z,100.00
2018-11-03T03:45:45.605Z,100.00
2018-11-03T03:48:14.063Z,100.00
2018-11-03T03:50:42.492Z,100.00
2018-11-03T03:53:10.960Z,100.00
2018-11-03T03:55:39.414Z,100.00
2018-11-03T03:58:07.861Z,100.00
2018-11-03T04:00:36.311Z,100.00
2018-11-03T04:03:04.826Z,100.00
2018-11-03T04:05:33.269Z,100.00
2018-11-03T04:08:01.763Z,100.00
2018-11-03T04:10:30.237Z,100.00
2018-11-03T04:12:58.673Z,100.00
2018-11-03T04:15:27.145Z,100.00
2018-11-03T04:17:55.710Z,100.00
2018-11-03T04:20:27.985Z,100.00
2018-11-03T04:22:56.421Z,100.00
2018-11-03T04:25:24.873Z,100.00
2018-11-03T04:27:53.333Z,100.00
2018-11-03T04:30:21.799Z,100.00
2018-11-03T04:32:50.249Z,100.00
2018-11-03T04:35:18.739Z,100.00
2018-11-03T04:37:47.170Z,100.00
2018-11-03T04:40:15.601Z,100.00
2018-11-03T04:42:44.052Z,100.00
2018-11-03T04:45:13.114Z,100.00
2018-11-03T04:47:41.508Z,100.00
2018-11-03T04:50:10.628Z,100.00
2018-11-03T04:52:39.213Z,100.00
2018-11-03T04:55:08.959Z,100.00
2018-11-03T04:57:37.394Z,100.00
2018-11-03T05:00:06.447Z,100.00
2018-11-03T05:02:34.875Z,100.00
2018-11-03T05:05:03.425Z,100.00
2018-11-03T05:07:31.868Z,100.00
2018-11-03T05:10:00.346Z,100.00
2018-11-03T05:12:28.765Z,100.00
2018-11-03T05:14:57.225Z,100.00
2018-11-03T05:17:25.660Z,100.00
2018-11-03T05:19:54.128Z,100.00
2018-11-03T05:22:22.622Z,100.00
2018-11-03T05:24:51.079Z,100.00
2018-11-03T05:27:19.523Z,100.00
2018-11-03T05:29:47.978Z,100.00
2018-11-03T05:32:16.441Z,100.00
2018-11-03T05:34:44.926Z,100.00
2018-11-03T05:37:13.345Z,100.00
2018-11-03T05:39:41.826Z,100.00
2018-11-03T05:42:10.290Z,100.00
2018-11-03T05:44:38.804Z,100.00
2018-11-03T05:47:07.318Z,100.00
2018-11-03T05:49:35.788Z,100.00
2018-11-03T05:52:04.277Z,100.00
2018-11-03T05:54:32.756Z,100.00
2018-11-03T05:57:01.156Z,100.00
2018-11-03T05:59:29.606Z,100.00
2018-11-03T06:01:58.060Z,100.00
2018-11-03T06:04:26.546Z,100.00
2018-11-03T06:06:54.987Z,100.00
2018-11-03T06:09:23.434Z,100.00
2018-11-03T06:11:51.873Z,100.00
2018-11-03T06:14:20.378Z,100.00
2018-11-03T06:16:48.798Z,100.00
2018-11-03T06:19:17.299Z,100.00
2018-11-03T06:21:45.762Z,100.00
2018-11-03T06:24:14.209Z,100.00
2018-11-03T06:26:42.640Z,100.00
2018-11-03T06:29:11.101Z,100.00
2018-11-03T06:31:39.552Z,100.00
2018-11-03T06:34:07.988Z,100.00
2018-11-03T06:36:36.437Z,100.00
2018-11-03T06:39:06.742Z,100.00
2018-11-03T06:41:35.068Z,100.00
2018-11-03T06:44:03.558Z,100.00
2018-11-03T06:46:32.110Z,100.00
2018-11-03T06:49:36.301Z,100.00
2018-11-03T06:52:04.881Z,100.00
2018-11-03T06:54:33.307Z,100.00
2018-11-03T06:57:01.769Z,100.00
2018-11-03T06:59:30.243Z,100.00
2018-11-03T07:01:59.271Z,100.00
2018-11-03T07:04:27.940Z,100.00
2018-11-03T07:06:56.421Z,100.00
2018-11-03T07:09:24.826Z,100.00
2018-11-03T07:11:53.312Z,100.00
2018-11-03T07:14:21.712Z,100.00
2018-11-03T07:16:50.139Z,100.00
2018-11-03T07:19:19.138Z,100.00
2018-11-03T07:21:47.705Z,100.00
2018-11-03T07:24:16.000Z,100.00
2018-11-03T07:26:44.444Z,100.00
2018-11-03T07:29:12.849Z,100.00
2018-11-03T07:31:41.857Z,100.00
2018-11-03T07:34:10.306Z,100.00
2018-11-03T07:36:38.733Z,100.00
2018-11-03T07:39:08.273Z,100.00
2018-11-03T07:41:36.870Z,100.00
2018-11-03T07:44:06.735Z,100.00
2018-11-03T07:46:35.238Z,100.00
2018-11-03T07:49:03.889Z,100.00
2018-11-03T07:51:32.169Z,100.00
2018-11-03T07:54:00.593Z,100.00
2018-11-03T07:56:29.073Z,100.00
2018-11-03T07:58:57.502Z,100.00
2018-11-03T08:01:25.948Z,100.00
2018-11-03T08:03:54.505Z,100.00
2018-11-03T08:06:22.985Z,100.00
2018-11-03T08:11:15.130Z,100.00
2018-11-03T08:13:44.027Z,100.00
2018-11-03T08:16:12.493Z,100.00
2018-11-03T08:18:40.955Z,100.00
2018-11-03T08:21:09.394Z,100.00
2018-11-03T08:23:37.916Z,100.00
2018-11-03T08:26:06.421Z,100.00
2018-11-03T08:28:34.902Z,100.00
2018-11-03T08:31:03.413Z,100.00
2018-11-03T08:33:31.836Z,100.00
2018-11-03T08:36:00.283Z,100.00
2018-11-03T08:38:28.725Z,100.00
2018-11-03T08:40:57.198Z,100.00
2018-11-03T08:43:25.631Z,100.00
2018-11-03T08:45:54.085Z,100.00
2018-11-03T08:48:23.657Z,100.00
2018-11-03T08:50:52.177Z,100.00
2018-11-03T08:53:20.605Z,100.00
2018-11-03T08:55:49.076Z,100.00
2018-11-03T08:58:17.511Z,100.00
2018-11-03T09:00:46.003Z,100.00
2018-11-03T09:03:14.445Z,100.00
2018-11-03T09:05:42.903Z,100.00
2018-11-03T09:08:11.315Z,100.00
2018-11-03T09:10:39.795Z,100.00
2018-11-03T09:13:08.235Z,100.00
2018-11-03T09:15:36.661Z,100.00
2018-11-03T09:18:05.158Z,100.00
2018-11-03T09:20:33.582Z,100.00
2018-11-03T09:23:02.249Z,100.00
2018-11-03T09:25:30.702Z,100.00
2018-11-03T09:27:59.166Z,100.00
2018-11-03T09:30:27.594Z,100.00
2018-11-03T09:32:56.049Z,100.00
2018-11-03T09:35:24.477Z,100.00
2018-11-03T09:37:52.918Z,100.00
2018-11-03T09:40:21.569Z,100.00
2018-11-03T09:42:50.191Z,100.00
2018-11-03T09:45:18.605Z,100.00
2018-11-03T09:47:47.061Z,100.00
2018-11-03T09:50:16.998Z,100.00
2018-11-03T09:52:45.602Z,100.00
2018-11-03T09:55:16.068Z,100.00
2018-11-03T09:57:44.601Z,100.00
2018-11-03T10:00:16.637Z,100.00
2018-11-03T10:02:45.201Z,100.00
2018-11-03T10:05:14.420Z,100.00
2018-11-03T10:07:42.899Z,100.00
2018-11-03T10:10:13.973Z,100.00
2018-11-03T10:12:42.552Z,100.00
2018-11-03T10:15:11.432Z,100.00
2018-11-03T10:17:39.966Z,100.00
2018-11-03T10:20:10.014Z,100.00
2018-11-03T10:22:39.670Z,100.00
2018-11-03T10:25:10.323Z,100.00
2018-11-03T10:27:38.779Z,100.00
2018-11-03T10:30:08.563Z,100.00
2018-11-03T10:32:37.537Z,100.00
2018-11-03T10:35:06.223Z,100.00
2018-11-03T10:37:34.734Z,100.00
2018-11-03T10:40:03.237Z,100.00
2018-11-03T10:42:31.717Z,100.00
2018-11-03T10:45:00.181Z,100.00
2018-11-03T10:47:28.615Z,100.00
2018-11-03T10:49:57.033Z,100.00
2018-11-03T10:52:25.522Z,100.00
2018-11-03T10:54:53.980Z,100.00
2018-11-03T10:57:22.431Z,100.00
2018-11-03T10:59:50.926Z,100.00
2018-11-03T11:02:24.693Z,100.00
2018-11-03T11:04:58.422Z,100.00
2018-11-03T11:08:34.711Z,100.00
2018-11-03T11:11:08.557Z,100.00
2018-11-03T11:13:41.634Z,100.00
2018-11-03T11:16:10.129Z,100.00
2018-11-03T11:18:38.588Z,100.00
2018-11-03T11:21:07.065Z,100.00
2018-11-03T11:23:35.777Z,100.00
2018-11-03T11:26:04.477Z,100.00
2018-11-03T11:28:32.937Z,100.00
2018-11-03T11:31:01.388Z,100.00
2018-11-03T11:33:29.826Z,100.00
2018-11-03T11:35:58.254Z,100.00
2018-11-03T11:38:26.683Z,100.00
2018-11-03T11:40:55.124Z,100.00
2018-11-03T11:43:23.565Z,100.00
2018-11-03T11:45:51.985Z,100.00
2018-11-03T11:48:20.449Z,100.00
2018-11-03T11:50:48.845Z,100.00
2018-11-03T11:53:17.288Z,100.00
2018-11-03T11:55:45.716Z,100.00
2018-11-03T11:58:14.163Z,100.00
2018-11-03T12:00:43.700Z,100.00
2018-11-03T12:03:12.278Z,100.00
2018-11-03T12:05:40.716Z,100.00
2018-11-03T12:08:09.134Z,100.00
2018-11-03T12:10:37.625Z,100.00
2018-11-03T12:13:06.243Z,100.00
2018-11-03T12:15:34.674Z,100.00
2018-11-03T12:18:03.158Z,100.00
2018-11-03T12:20:31.725Z,100.00
2018-11-03T12:23:00.181Z,100.00
2018-11-03T12:25:28.650Z,100.00
2018-11-03T12:27:57.028Z,100.00
2018-11-03T12:30:27.604Z,100.00
2018-11-03T12:32:56.021Z,100.00
2018-11-03T12:35:24.425Z,100.00
2018-11-03T12:37:52.846Z,100.00
2018-11-03T12:40:21.281Z,100.00
2018-11-03T12:42:49.739Z,100.00
2018-11-03T12:45:18.159Z,100.00
2018-11-03T12:47:47.666Z,100.00
2018-11-03T12:50:17.325Z,100.00
2018-11-03T12:52:45.910Z,100.00
2018-11-03T12:55:14.361Z,100.00
2018-11-03T12:57:43.385Z,100.00
2018-11-03T13:00:15.262Z,100.00
2018-11-03T13:02:44.876Z,100.00
2018-11-03T13:05:13.560Z,100.00
2018-11-03T13:07:43.190Z,100.00
2018-11-03T13:10:12.009Z,100.00
2018-11-03T13:12:41.215Z,100.00
2018-11-03T13:15:10.730Z,100.00
2018-11-03T13:17:39.397Z,100.00
2018-11-03T13:20:09.403Z,100.00
2018-11-03T13:22:37.877Z,100.00
2018-11-03T13:25:07.433Z,100.00
2018-11-03T13:27:35.834Z,100.00
2018-11-03T13:30:04.367Z,100.00
2018-11-03T13:32:32.837Z,100.00
2018-11-03T13:35:01.333Z,100.00
2018-11-03T13:37:29.958Z,100.00
2018-11-03T13:39:58.397Z,100.00
2018-11-03T13:42:26.917Z,100.00
2018-11-03T13:44:55.355Z,100.00
2018-11-03T13:47:23.885Z,100.00
2018-11-03T13:49:52.249Z,100.00
2018-11-03T13:52:20.874Z,100.00
2018-11-03T13:54:49.432Z,100.00
2018-11-03T13:57:17.928Z,91.58
2018-11-03T13:59:46.341Z,74.74
2018-11-03T14:02:14.729Z,74.53
2018-11-03T14:04:43.157Z,72.33
2018-11-03T14:07:11.600Z,68.33
2018-11-03T14:09:40.101Z,68.23
2018-11-03T14:12:08.534Z,66.80
2018-11-03T14:14:36.969Z,65.57
2018-11-03T14:17:05.491Z,63.70
2018-11-03T14:19:33.837Z,63.23
2018-11-03T14:22:02.287Z,60.41
2018-11-03T14:24:30.729Z,58.41
2018-11-03T14:26:59.165Z,58.53
2018-11-03T14:29:27.565Z,62.48
2018-11-03T14:31:56.042Z,64.23
2018-11-03T14:34:24.570Z,68.64
2018-11-03T14:36:52.987Z,69.86
2018-11-03T14:39:21.397Z,73.39
2018-11-03T14:41:49.938Z,79.09
2018-11-03T14:44:18.377Z,84.26
2018-11-03T14:46:46.828Z,89.51
2018-11-03T14:49:15.321Z,93.30
2018-11-03T14:51:43.743Z,97.79
2018-11-03T14:54:12.129Z,100.00
2018-11-03T14:56:40.634Z,100.00
2018-11-03T14:59:08.994Z,100.00
2018-11-03T15:01:37.455Z,100.00
2018-11-03T15:04:06.343Z,100.00
2018-11-03T15:06:34.762Z,100.00
2018-11-03T15:09:03.275Z,100.00
2018-11-03T15:11:31.906Z,100.00
2018-11-03T15:14:00.451Z,100.00
2018-11-03T15:16:28.805Z,100.00
2018-11-03T15:18:57.193Z,100.00
2018-11-03T15:21:25.602Z,100.00
2018-11-03T15:23:54.003Z,100.00
2018-11-03T15:26:22.417Z,100.00
2018-11-03T15:28:50.909Z,100.00
2018-11-03T15:31:19.338Z,100.00
2018-11-03T15:33:47.753Z,100.00
2018-11-03T15:36:16.192Z,100.00
2018-11-03T15:38:44.630Z,100.00
2018-11-03T15:41:13.060Z,100.00
2018-11-03T15:43:41.515Z,100.00
2018-11-03T15:46:09.943Z,100.00
2018-11-03T15:48:38.361Z,100.00
2018-11-03T15:51:06.767Z,100.00
2018-11-03T15:53:35.170Z,100.00
2018-11-03T15:56:03.650Z,100.00
2018-11-03T15:58:32.154Z,100.00
2018-11-03T16:01:00.601Z,100.00
2018-11-03T16:03:29.010Z,100.00
2018-11-03T16:05:57.557Z,100.00
2018-11-03T16:08:26.044Z,100.00
2018-11-03T16:10:54.452Z,100.00
2018-11-03T16:13:22.885Z,100.00
2018-11-03T16:15:51.278Z,100.00
2018-11-03T16:18:19.709Z,100.00
2018-11-03T16:20:48.111Z,100.00
2018-11-03T16:23:16.531Z,100.00
2018-11-03T16:25:45.040Z,100.00
2018-11-03T16:28:13.418Z,100.00
2018-11-03T16:30:41.880Z,100.00
2018-11-03T16:33:10.317Z,100.00
2018-11-03T16:35:38.846Z,100.00
2018-11-03T16:38:07.246Z,100.00
2018-11-03T16:40:35.705Z,100.00
2018-11-03T16:43:04.230Z,100.00
2018-11-03T16:45:32.730Z,100.00
2018-11-03T16:48:01.162Z,100.00
2018-11-03T16:50:29.608Z,100.00
2018-11-03T16:52:58.037Z,100.00
2018-11-03T16:55:26.757Z,100.00
2018-11-03T16:57:55.176Z,100.00
2018-11-03T17:00:23.616Z,100.00
2018-11-03T17:02:52.047Z,100.00
2018-11-03T17:05:20.511Z,100.00
2018-11-03T17:07:48.933Z,100.00
2018-11-03T17:10:17.457Z,100.00
2018-11-03T17:12:46.982Z,100.00
2018-11-03T17:15:16.030Z,100.00
2018-11-03T17:17:44.528Z,100.00
2018-11-03T17:20:13.077Z,100.00
2018-11-03T17:22:41.549Z,100.00
2018-11-03T17:25:11.236Z,100.00
2018-11-03T17:27:39.658Z,100.00
2018-11-03T17:30:11.611Z,100.00
2018-11-03T17:32:40.043Z,100.00
2018-11-03T17:35:08.514Z,100.00
2018-11-03T17:37:36.922Z,100.00
2018-11-03T17:40:06.632Z,100.00
2018-11-03T17:42:35.049Z,100.00
2018-11-03T17:45:03.513Z,100.00
2018-11-03T17:47:31.937Z,100.00
2018-11-03T17:50:00.363Z,100.00
2018-11-03T17:52:28.766Z,100.00
2018-11-03T17:54:57.290Z,100.00
2018-11-03T17:57:25.659Z,100.00
2018-11-03T17:59:54.120Z,100.00
2018-11-03T18:02:22.615Z,100.00
2018-11-03T18:04:51.137Z,100.00
2018-11-03T18:07:19.583Z,100.00
2018-11-03T18:09:47.964Z,100.00
2018-11-03T18:12:16.566Z,100.00
2018-11-03T18:14:45.001Z,100.00
2018-11-03T18:17:13.417Z,100.00
2018-11-03T18:19:41.972Z,100.00
2018-11-03T18:22:10.393Z,100.00
2018-11-03T18:24:38.891Z,100.00
2018-11-03T18:27:07.265Z,100.00
2018-11-03T18:29:35.714Z,100.00
2018-11-03T18:32:04.266Z,100.00
2018-11-03T18:34:32.785Z,100.00
2018-11-03T18:37:01.165Z,100.00
2018-11-03T18:39:29.610Z,100.00
2018-11-03T18:41:58.014Z,100.00
2018-11-03T18:44:26.522Z,100.00
2018-11-03T18:46:54.978Z,100.00
2018-11-03T18:49:23.402Z,100.00
2018-11-03T18:51:51.887Z,100.00
2018-11-03T18:54:20.260Z,100.00
2018-11-03T18:56:48.984Z,100.00
2018-11-03T18:59:17.706Z,100.00
2018-11-03T19:01:46.678Z,100.00
2018-11-03T19:04:15.370Z,100.00
2018-11-03T19:06:44.057Z,100.00
2018-11-03T19:09:12.840Z,100.00
2018-11-03T19:11:41.677Z,100.00
2018-11-03T19:14:10.329Z,100.00
2018-11-03T19:16:39.004Z,100.00
2018-11-03T19:19:07.674Z,100.00
2018-11-03T19:21:36.402Z,100.00
2018-11-03T19:24:05.145Z,100.00
2018-11-03T19:26:37.742Z,100.00
2018-11-03T19:29:06.492Z,100.00
2018-11-03T19:31:35.221Z,100.00
2018-11-03T19:34:03.881Z,100.00
2018-11-03T19:36:32.646Z,100.00
2018-11-03T19:39:01.360Z,100.00
2018-11-03T19:41:30.093Z,100.00
2018-11-03T19:43:58.690Z,100.00
2018-11-03T19:46:27.355Z,100.00
2018-11-03T19:48:56.077Z,100.00
2018-11-03T19:51:24.832Z,100.00
2018-11-03T19:53:53.615Z,100.00
2018-11-03T19:56:22.417Z,100.00
2018-11-03T19:58:51.187Z,100.00
2018-11-03T20:01:20.064Z,100.00
2018-11-03T20:03:48.740Z,100.00
2018-11-03T20:06:17.438Z,100.00
2018-11-03T20:08:46.130Z,100.00
2018-11-03T20:11:14.830Z,100.00
2018-11-03T20:13:43.524Z,100.00
2018-11-03T20:16:12.307Z,100.00
2018-11-03T20:18:40.966Z,100.00
2018-11-03T20:21:09.679Z,100.00
2018-11-03T20:23:38.409Z,100.00
2018-11-03T20:26:07.426Z,100.00
2018-11-03T20:28:36.026Z,100.00
2018-11-03T20:31:04.721Z,100.00
2018-11-03T20:33:33.397Z,100.00
2018-11-03T20:36:02.031Z,100.00
2018-11-03T20:38:32.768Z,100.00
2018-11-03T20:41:01.418Z,100.00
2018-11-03T20:43:33.721Z,100.00
2018-11-03T20:46:02.129Z,100.00
2018-11-03T20:48:30.553Z,100.00
2018-11-03T20:51:04.181Z,100.00
2018-11-03T20:53:32.635Z,100.00
2018-11-03T20:56:01.016Z,100.00
2018-11-03T20:58:29.481Z,100.00
2018-11-03T21:00:57.885Z,100.00
2018-11-03T21:03:26.340Z,100.00
2018-11-03T21:05:54.767Z,100.00
2018-11-03T21:08:23.257Z,100.00
2018-11-03T21:10:51.683Z,100.00
2018-11-03T21:13:20.116Z,100.00
2018-11-03T21:15:48.564Z,100.00
2018-11-03T21:18:17.018Z,100.00
2018-11-03T21:20:45.464Z,100.00
2018-11-03T21:23:13.983Z,100.00
2018-11-03T21:25:42.363Z,100.00
2018-11-03T21:28:10.769Z,100.00
2018-11-03T21:30:39.246Z,100.00
2018-11-03T21:33:07.807Z,100.00
2018-11-03T21:35:36.126Z,100.00
2018-11-03T21:38:04.686Z,100.00
2018-11-03T21:40:33.137Z,100.00
2018-11-03T21:43:01.629Z,100.00
2018-11-03T21:45:30.062Z,100.00
2018-11-03T21:47:58.554Z,100.00
2018-11-03T21:50:26.977Z,100.00
2018-11-03T21:52:55.420Z,100.00
2018-11-03T21:55:23.845Z,100.00
2018-11-03T21:57:53.342Z,100.00
2018-11-03T22:00:21.763Z,100.00
2018-11-03T22:02:50.224Z,100.00
2018-11-03T22:05:18.689Z,100.00
2018-11-03T22:07:47.145Z,100.00
2018-11-03T22:10:15.569Z,100.00
2018-11-03T22:12:44.261Z,100.00
2018-11-03T22:15:12.680Z,100.00
2018-11-03T22:17:41.743Z,100.00
2018-11-03T22:20:11.155Z,100.00
2018-11-03T22:22:39.802Z,100.00
2018-11-03T22:25:09.585Z,100.00
2018-11-03T22:27:38.502Z,100.00
2018-11-03T22:30:08.601Z,100.00
2018-11-03T22:32:37.085Z,100.00
2018-11-03T22:35:05.728Z,100.00
2018-11-03T22:37:34.230Z,100.00
2018-11-03T22:40:02.712Z,100.00
2018-11-03T22:42:31.151Z,100.00
2018-11-03T22:44:59.569Z,100.00
2018-11-03T22:47:28.034Z,100.00
2018-11-03T22:49:56.493Z,100.00
2018-11-03T22:52:24.938Z,100.00
2018-11-03T22:54:53.374Z,100.00
2018-11-03T22:57:21.809Z,100.00
2018-11-03T22:59:50.279Z,100.00
2018-11-03T23:02:18.704Z,100.00
2018-11-03T23:04:47.168Z,100.00
2018-11-03T23:07:15.603Z,100.00
2018-11-03T23:09:44.051Z,100.00
2018-11-03T23:12:12.483Z,100.00
2018-11-03T23:14:41.130Z,100.00
2018-11-03T23:17:09.648Z,100.00
2018-11-03T23:19:38.095Z,100.00
2018-11-03T23:22:06.982Z,100.00
2018-11-03T23:24:35.414Z,100.00
2018-11-03T23:27:03.878Z,100.00
2018-11-03T23:29:32.403Z,100.00
2018-11-03T23:32:00.815Z,100.00
2018-11-03T23:34:29.246Z,100.00
2018-11-03T23:36:57.697Z,100.00
2018-11-03T23:39:26.146Z,100.00
2018-11-03T23:41:54.565Z,100.00
2018-11-03T23:44:22.985Z,100.00
2018-11-03T23:46:51.414Z,100.00
2018-11-03T23:49:19.940Z,100.00
2018-11-03T23:51:48.454Z,100.00
2018-11-03T23:54:16.877Z,100.00
2018-11-03T23:56:45.327Z,100.00
2018-11-03T23:59:13.796Z,100.00
